<?xml version="1.0" encoding="UTF-8" standalone="yes"?>
<gpx
 xmlns="http://www.topografix.com/GPX/1/1"
 creator="OziExplorer Version 3955n - http://www.oziexplorer.com"
 version="1.1"
 xmlns:xsi="http://www.w3.org/2001/XMLSchema-instance"
 xsi:schemaLocation="http://www.topografix.com/GPX/1/1 http://www.topografix.com/GPX/1/1/gpx.xsd">
<metadata>
 <time>2014-09-18T19:05:23Z</time>
 <bounds minlat="31.747929" minlon="35.008222" maxlat="31.784100" maxlon="35.114670"/>
</metadata>
<trk>
 <name>soreknaoborot</name>
 <desc>Reversed - Sorek, 34.5 km.- filtere</desc>
<trkseg>
<trkpt lat="31.7777600" lon="35.0158300">
<ele>266.425659</ele>
<time>2010-07-16T09:12:29.002Z</time>
</trkpt>
<trkpt lat="31.7779600" lon="35.0157400">
<ele>264.993134</ele>
<time>2010-07-16T09:12:14.996Z</time>
</trkpt>
<trkpt lat="31.7780600" lon="35.0159800">
<ele>266.425659</ele>
<time>2010-07-16T09:12:06.002Z</time>
</trkpt>
<trkpt lat="31.7774700" lon="35.0160700">
<ele>272.186401</ele>
<time>2010-07-16T09:11:50.001Z</time>
</trkpt>
<trkpt lat="31.7766500" lon="35.0146400">
<ele>280.842712</ele>
<time>2010-07-16T09:11:21.998Z</time>
</trkpt>
<trkpt lat="31.7757400" lon="35.0142400">
<ele>284.195526</ele>
<time>2010-07-16T09:07:30.999Z</time>
</trkpt>
<trkpt lat="31.7748800" lon="35.0135100">
<ele>279.867371</ele>
<time>2010-07-16T09:05:56.003Z</time>
</trkpt>
<trkpt lat="31.7748000" lon="35.0132400">
<ele>279.410156</ele>
<time>2010-07-16T09:05:41.004Z</time>
</trkpt>
<trkpt lat="31.7745300" lon="35.0137700">
<ele>274.106628</ele>
<time>2010-07-16T09:05:10.997Z</time>
</trkpt>
<trkpt lat="31.7742500" lon="35.0137200">
<ele>272.186401</ele>
<time>2010-07-16T09:04:57.000Z</time>
</trkpt>
<trkpt lat="31.7735700" lon="35.0130200">
<ele>268.345917</ele>
<time>2010-07-16T09:04:19.001Z</time>
</trkpt>
<trkpt lat="31.7728400" lon="35.0135500">
<ele>272.674072</ele>
<time>2010-07-16T09:03:56.002Z</time>
</trkpt>
<trkpt lat="31.7716000" lon="35.0155800">
<ele>287.091125</ele>
<time>2010-07-16T09:03:19.999Z</time>
</trkpt>
<trkpt lat="31.7711200" lon="35.0159800">
<ele>290.443939</ele>
<time>2010-07-16T09:03:10.996Z</time>
</trkpt>
<trkpt lat="31.7708900" lon="35.0169500">
<ele>294.772064</ele>
<time>2010-07-16T09:02:52.999Z</time>
</trkpt>
<trkpt lat="31.7707400" lon="35.0170000">
<ele>297.179993</ele>
<time>2010-07-16T09:02:46.000Z</time>
</trkpt>
<trkpt lat="31.7703700" lon="35.0161700">
<ele>299.587921</ele>
<time>2010-07-16T09:02:24.003Z</time>
</trkpt>
<trkpt lat="31.7696000" lon="35.0157200">
<ele>288.066467</ele>
<time>2010-07-16T08:50:39.998Z</time>
</trkpt>
<trkpt lat="31.7694500" lon="35.0150900">
<ele>288.523682</ele>
<time>2010-07-16T08:50:11.996Z</time>
</trkpt>
<trkpt lat="31.7682900" lon="35.0134000">
<ele>269.321259</ele>
<time>2010-07-16T08:46:50.002Z</time>
</trkpt>
<trkpt lat="31.7679100" lon="35.0121900">
<ele>264.017761</ele>
<time>2010-07-16T08:45:53.997Z</time>
</trkpt>
<trkpt lat="31.7664300" lon="35.0097400">
<ele>252.008636</ele>
<time>2010-07-16T08:43:33.001Z</time>
</trkpt>
<trkpt lat="31.7659900" lon="35.0094300">
<ele>251.033279</ele>
<time>2010-07-16T08:43:11.004Z</time>
</trkpt>
<trkpt lat="31.7639400" lon="35.0089100">
<ele>243.839996</ele>
<time>2010-07-16T08:41:38.003Z</time>
</trkpt>
<trkpt lat="31.7627500" lon="35.0095100">
<ele>241.432068</ele>
<time>2010-07-16T08:40:56.004Z</time>
</trkpt>
<trkpt lat="31.7626200" lon="35.0106900">
<ele>242.376968</ele>
<time>2010-07-16T08:40:29.004Z</time>
</trkpt>
<trkpt lat="31.7616600" lon="35.0139700">
<ele>242.376968</ele>
<time>2010-07-16T08:38:05.001Z</time>
</trkpt>
<trkpt lat="31.7617300" lon="35.0147500">
<ele>244.297195</ele>
<time>2010-07-16T08:37:34.000Z</time>
</trkpt>
<trkpt lat="31.7614100" lon="35.0180400">
<ele>249.113037</ele>
<time>2010-07-16T08:36:13.000Z</time>
</trkpt>
<trkpt lat="31.7611600" lon="35.0194100">
<ele>250.088394</ele>
<time>2010-07-16T08:35:43.002Z</time>
</trkpt>
<trkpt lat="31.7606600" lon="35.0209200">
<ele>251.033279</ele>
<time>2010-07-16T08:35:01.003Z</time>
</trkpt>
<trkpt lat="31.7609300" lon="35.0231100">
<ele>252.953522</ele>
<time>2010-07-16T08:34:19.998Z</time>
</trkpt>
<trkpt lat="31.7613400" lon="35.0249500">
<ele>262.585205</ele>
<time>2010-07-16T08:33:45.999Z</time>
</trkpt>
<trkpt lat="31.7619600" lon="35.0265800">
<ele>268.833588</ele>
<time>2010-07-16T08:33:04.000Z</time>
</trkpt>
<trkpt lat="31.7622600" lon="35.0282500">
<ele>270.266174</ele>
<time>2010-07-16T08:22:25.997Z</time>
</trkpt>
<trkpt lat="31.7620300" lon="35.0289900">
<ele>273.161774</ele>
<time>2010-07-16T08:22:10.998Z</time>
</trkpt>
<trkpt lat="31.7604800" lon="35.0304600">
<ele>277.489929</ele>
<time>2010-07-16T08:20:11.999Z</time>
</trkpt>
<trkpt lat="31.7603800" lon="35.0311300">
<ele>279.410156</ele>
<time>2010-07-16T08:19:59.998Z</time>
</trkpt>
<trkpt lat="31.7604900" lon="35.0329700">
<ele>289.986725</ele>
<time>2010-07-16T08:19:31.002Z</time>
</trkpt>
<trkpt lat="31.7606900" lon="35.0335800">
<ele>292.364166</ele>
<time>2010-07-16T08:18:14.996Z</time>
</trkpt>
<trkpt lat="31.7609400" lon="35.0338600">
<ele>293.339539</ele>
<time>2010-07-16T08:18:06.002Z</time>
</trkpt>
<trkpt lat="31.7617700" lon="35.0340900">
<ele>295.259766</ele>
<time>2010-07-16T08:17:50.001Z</time>
</trkpt>
<trkpt lat="31.7632000" lon="35.0352700">
<ele>301.020477</ele>
<time>2010-07-16T08:17:08.002Z</time>
</trkpt>
<trkpt lat="31.7637700" lon="35.0370400">
<ele>303.428406</ele>
<time>2010-07-16T08:16:30.003Z</time>
</trkpt>
<trkpt lat="31.7648100" lon="35.0393000">
<ele>308.244232</ele>
<time>2010-07-16T08:13:17.003Z</time>
</trkpt>
<trkpt lat="31.7646800" lon="35.0409500">
<ele>316.900543</ele>
<time>2010-07-16T08:12:50.003Z</time>
</trkpt>
<trkpt lat="31.7626100" lon="35.0463700">
<ele>320.253357</ele>
<time>2010-07-16T08:10:36.998Z</time>
</trkpt>
<trkpt lat="31.7625700" lon="35.0470300">
<ele>320.741058</ele>
<time>2010-07-16T08:10:21.999Z</time>
</trkpt>
<trkpt lat="31.7627500" lon="35.0476300">
<ele>321.228729</ele>
<time>2010-07-16T08:10:11.001Z</time>
</trkpt>
<trkpt lat="31.7635000" lon="35.0489000">
<ele>321.685913</ele>
<time>2010-07-16T08:09:44.001Z</time>
</trkpt>
<trkpt lat="31.7636600" lon="35.0498000">
<ele>325.069214</ele>
<time>2010-07-16T08:09:26.004Z</time>
</trkpt>
<trkpt lat="31.7634500" lon="35.0502200">
<ele>325.069214</ele>
<time>2010-07-16T08:09:17.001Z</time>
</trkpt>
<trkpt lat="31.7630200" lon="35.0505200">
<ele>328.421997</ele>
<time>2010-07-16T08:09:07.004Z</time>
</trkpt>
<trkpt lat="31.7617000" lon="35.0507500">
<ele>334.670410</ele>
<time>2010-07-16T08:08:19.000Z</time>
</trkpt>
<trkpt lat="31.7602800" lon="35.0499200">
<ele>349.575134</ele>
<time>2010-07-16T08:06:33.998Z</time>
</trkpt>
<trkpt lat="31.7584700" lon="35.0483000">
<ele>352.470734</ele>
<time>2010-07-16T08:05:46.997Z</time>
</trkpt>
<trkpt lat="31.7568400" lon="35.0475900">
<ele>354.390930</ele>
<time>2010-07-16T08:05:11.003Z</time>
</trkpt>
<trkpt lat="31.7556700" lon="35.0477800">
<ele>357.256073</ele>
<time>2010-07-16T08:04:40.002Z</time>
</trkpt>
<trkpt lat="31.7548700" lon="35.0482300">
<ele>355.823517</ele>
<time>2010-07-16T08:04:06.997Z</time>
</trkpt>
<trkpt lat="31.7535100" lon="35.0493000">
<ele>351.983063</ele>
<time>2010-07-16T08:03:11.002Z</time>
</trkpt>
<trkpt lat="31.7531800" lon="35.0496900">
<ele>351.007660</ele>
<time>2010-07-16T08:02:56.003Z</time>
</trkpt>
<trkpt lat="31.7530600" lon="35.0502900">
<ele>349.575134</ele>
<time>2010-07-16T08:02:41.997Z</time>
</trkpt>
<trkpt lat="31.7534700" lon="35.0514400">
<ele>351.007660</ele>
<time>2010-07-16T08:02:21.002Z</time>
</trkpt>
<trkpt lat="31.7540800" lon="35.0524200">
<ele>351.983063</ele>
<time>2010-07-16T08:02:02.996Z</time>
</trkpt>
<trkpt lat="31.7579000" lon="35.0544200">
<ele>364.479858</ele>
<time>2010-07-16T08:00:41.003Z</time>
</trkpt>
<trkpt lat="31.7588200" lon="35.0556800">
<ele>361.127045</ele>
<time>2010-07-16T08:00:05.000Z</time>
</trkpt>
<trkpt lat="31.7596300" lon="35.0572900">
<ele>360.639343</ele>
<time>2010-07-16T07:59:29.999Z</time>
</trkpt>
<trkpt lat="31.7608800" lon="35.0588800">
<ele>361.584259</ele>
<time>2010-07-16T07:58:54.998Z</time>
</trkpt>
<trkpt lat="31.7637800" lon="35.0614800">
<ele>369.295685</ele>
<time>2010-07-16T07:57:48.997Z</time>
</trkpt>
<trkpt lat="31.7644100" lon="35.0634200">
<ele>371.673126</ele>
<time>2010-07-16T07:57:16.001Z</time>
</trkpt>
<trkpt lat="31.7660200" lon="35.0652400">
<ele>373.136139</ele>
<time>2010-07-16T07:56:27.997Z</time>
</trkpt>
<trkpt lat="31.7661900" lon="35.0661100">
<ele>373.136139</ele>
<time>2010-07-16T07:56:15.003Z</time>
</trkpt>
<trkpt lat="31.7659800" lon="35.0672900">
<ele>375.544067</ele>
<time>2010-07-16T07:55:57.999Z</time>
</trkpt>
<trkpt lat="31.7650600" lon="35.0683000">
<ele>376.488953</ele>
<time>2010-07-16T07:55:37.998Z</time>
</trkpt>
<trkpt lat="31.7629900" lon="35.0693100">
<ele>380.329468</ele>
<time>2010-07-16T07:55:02.004Z</time>
</trkpt>
<trkpt lat="31.7617800" lon="35.0706200">
<ele>382.249664</ele>
<time>2010-07-16T07:53:49.004Z</time>
</trkpt>
<trkpt lat="31.7604500" lon="35.0712000">
<ele>385.632935</ele>
<time>2010-07-16T07:53:22.998Z</time>
</trkpt>
<trkpt lat="31.7596400" lon="35.0713500">
<ele>386.577850</ele>
<time>2010-07-16T07:53:07.999Z</time>
</trkpt>
<trkpt lat="31.7583700" lon="35.0707400">
<ele>388.498077</ele>
<time>2010-07-16T07:52:43.003Z</time>
</trkpt>
<trkpt lat="31.7580300" lon="35.0702500">
<ele>388.985748</ele>
<time>2010-07-16T07:52:32.998Z</time>
</trkpt>
<trkpt lat="31.7575400" lon="35.0683500">
<ele>391.393677</ele>
<time>2010-07-16T07:52:01.004Z</time>
</trkpt>
<trkpt lat="31.7568800" lon="35.0676000">
<ele>394.289276</ele>
<time>2010-07-16T07:51:45.003Z</time>
</trkpt>
<trkpt lat="31.7560900" lon="35.0671300">
<ele>394.746460</ele>
<time>2010-07-16T07:51:29.002Z</time>
</trkpt>
<trkpt lat="31.7542200" lon="35.0648700">
<ele>398.129730</ele>
<time>2010-07-16T07:50:38.000Z</time>
</trkpt>
<trkpt lat="31.7534100" lon="35.0647500">
<ele>399.074646</ele>
<time>2010-07-16T07:50:24.003Z</time>
</trkpt>
<trkpt lat="31.7530300" lon="35.0651000">
<ele>400.537659</ele>
<time>2010-07-16T07:50:16.002Z</time>
</trkpt>
<trkpt lat="31.7523300" lon="35.0682500">
<ele>403.890472</ele>
<time>2010-07-16T07:49:15.004Z</time>
</trkpt>
<trkpt lat="31.7502700" lon="35.0689900">
<ele>405.810730</ele>
<time>2010-07-16T07:48:31.000Z</time>
</trkpt>
<trkpt lat="31.7493700" lon="35.0704900">
<ele>408.706329</ele>
<time>2010-07-16T07:47:57.002Z</time>
</trkpt>
<trkpt lat="31.7485800" lon="35.0722600">
<ele>411.114258</ele>
<time>2010-07-16T07:47:26.002Z</time>
</trkpt>
<trkpt lat="31.7482800" lon="35.0761000">
<ele>413.491669</ele>
<time>2010-07-16T07:46:13.002Z</time>
</trkpt>
<trkpt lat="31.7485800" lon="35.0773400">
<ele>415.899597</ele>
<time>2010-07-16T07:45:49.000Z</time>
</trkpt>
<trkpt lat="31.7499000" lon="35.0791500">
<ele>419.282867</ele>
<time>2010-07-16T07:45:08.004Z</time>
</trkpt>
<trkpt lat="31.7526500" lon="35.0806200">
<ele>426.963867</ele>
<time>2010-07-16T07:43:54.002Z</time>
</trkpt>
<trkpt lat="31.7561800" lon="35.0831200">
<ele>424.555939</ele>
<time>2010-07-16T07:40:44.000Z</time>
</trkpt>
<trkpt lat="31.7573900" lon="35.0817700">
<ele>438.972931</ele>
<time>2010-07-16T07:39:52.004Z</time>
</trkpt>
<trkpt lat="31.7582300" lon="35.0814700">
<ele>447.629272</ele>
<time>2010-07-16T07:39:33.998Z</time>
</trkpt>
<trkpt lat="31.7589500" lon="35.0807700">
<ele>458.693542</ele>
<time>2010-07-16T07:39:13.003Z</time>
</trkpt>
<trkpt lat="31.7596300" lon="35.0815000">
<ele>461.101440</ele>
<time>2010-07-16T07:38:51.999Z</time>
</trkpt>
<trkpt lat="31.7595900" lon="35.0818200">
<ele>463.966553</ele>
<time>2010-07-16T07:38:42.996Z</time>
</trkpt>
<trkpt lat="31.7592000" lon="35.0823300">
<ele>473.598267</ele>
<time>2010-07-16T07:38:11.996Z</time>
</trkpt>
<trkpt lat="31.7598700" lon="35.0828400">
<ele>477.926392</ele>
<time>2010-07-16T07:37:47.001Z</time>
</trkpt>
<trkpt lat="31.7608800" lon="35.0826700">
<ele>484.631989</ele>
<time>2010-07-16T07:37:13.002Z</time>
</trkpt>
<trkpt lat="31.7609100" lon="35.0822400">
<ele>487.527588</ele>
<time>2010-07-16T07:37:01.001Z</time>
</trkpt>
<trkpt lat="31.7611300" lon="35.0820200">
<ele>491.368073</ele>
<time>2010-07-16T07:36:09.999Z</time>
</trkpt>
<trkpt lat="31.7614500" lon="35.0826100">
<ele>494.263672</ele>
<time>2010-07-16T07:35:56.996Z</time>
</trkpt>
<trkpt lat="31.7612400" lon="35.0834500">
<ele>500.969269</ele>
<time>2010-07-16T07:35:37.997Z</time>
</trkpt>
<trkpt lat="31.7613200" lon="35.0839000">
<ele>504.840240</ele>
<time>2010-07-16T07:35:30.998Z</time>
</trkpt>
<trkpt lat="31.7620800" lon="35.0852600">
<ele>509.625610</ele>
<time>2010-07-16T07:35:06.996Z</time>
</trkpt>
<trkpt lat="31.7622300" lon="35.0861800">
<ele>513.008850</ele>
<time>2010-07-16T07:34:51.997Z</time>
</trkpt>
<trkpt lat="31.7632100" lon="35.0872500">
<ele>513.496521</ele>
<time>2010-07-16T07:34:24.004Z</time>
</trkpt>
<trkpt lat="31.7632200" lon="35.0875300">
<ele>513.496521</ele>
<time>2010-07-16T07:34:17.999Z</time>
</trkpt>
<trkpt lat="31.7617700" lon="35.0879200">
<ele>514.929138</ele>
<time>2010-07-16T07:33:48.001Z</time>
</trkpt>
<trkpt lat="31.7611600" lon="35.0888900">
<ele>517.794250</ele>
<time>2010-07-16T07:33:21.001Z</time>
</trkpt>
<trkpt lat="31.7607400" lon="35.0902900">
<ele>530.291077</ele>
<time>2010-07-16T07:30:44.004Z</time>
</trkpt>
<trkpt lat="31.7608800" lon="35.0907900">
<ele>531.754089</ele>
<time>2010-07-16T07:30:29.998Z</time>
</trkpt>
<trkpt lat="31.7626400" lon="35.0920300">
<ele>538.490173</ele>
<time>2010-07-16T07:29:43.999Z</time>
</trkpt>
<trkpt lat="31.7630200" lon="35.0935500">
<ele>540.867615</ele>
<time>2010-07-16T07:29:15.003Z</time>
</trkpt>
<trkpt lat="31.7630000" lon="35.0944300">
<ele>542.330627</ele>
<time>2010-07-16T07:29:00.997Z</time>
</trkpt>
<trkpt lat="31.7638200" lon="35.0954700">
<ele>547.603699</ele>
<time>2010-07-16T07:28:37.998Z</time>
</trkpt>
<trkpt lat="31.7646600" lon="35.0960500">
<ele>555.284668</ele>
<time>2010-07-16T07:28:13.996Z</time>
</trkpt>
<trkpt lat="31.7644800" lon="35.0983700">
<ele>556.260010</ele>
<time>2010-07-16T07:27:23.003Z</time>
</trkpt>
<trkpt lat="31.7646600" lon="35.0991300">
<ele>560.100464</ele>
<time>2010-07-16T07:27:09.999Z</time>
</trkpt>
<trkpt lat="31.7660800" lon="35.0997600">
<ele>570.677063</ele>
<time>2010-07-16T07:26:42.999Z</time>
</trkpt>
<trkpt lat="31.7673300" lon="35.0998900">
<ele>579.821045</ele>
<time>2010-07-16T07:26:17.002Z</time>
</trkpt>
<trkpt lat="31.7682600" lon="35.0993100">
<ele>587.014343</ele>
<time>2010-07-16T07:25:58.002Z</time>
</trkpt>
<trkpt lat="31.7691600" lon="35.0990500">
<ele>595.670654</ele>
<time>2010-07-16T07:25:42.001Z</time>
</trkpt>
<trkpt lat="31.7707600" lon="35.0989700">
<ele>600.974121</ele>
<time>2010-07-16T07:25:05.998Z</time>
</trkpt>
<trkpt lat="31.7711100" lon="35.0987100">
<ele>601.431335</ele>
<time>2010-07-16T07:24:57.004Z</time>
</trkpt>
<trkpt lat="31.7726100" lon="35.0962400">
<ele>613.470947</ele>
<time>2010-07-16T07:19:13.996Z</time>
</trkpt>
<trkpt lat="31.7729600" lon="35.0964500">
<ele>611.550720</ele>
<time>2010-07-16T07:03:06.998Z</time>
</trkpt>
<trkpt lat="31.7728000" lon="35.0962800">
<ele>610.575317</ele>
<time>2010-07-16T07:01:48.003Z</time>
</trkpt>
<trkpt lat="31.7726200" lon="35.0962600">
<ele>610.575317</ele>
<time>2010-07-16T07:01:28.001Z</time>
</trkpt>
<trkpt lat="31.7724400" lon="35.0967400">
<ele>599.998779</ele>
<time>2010-07-16T06:57:26.004Z</time>
</trkpt>
<trkpt lat="31.7726500" lon="35.0971300">
<ele>600.486450</ele>
<time>2010-07-16T06:56:59.004Z</time>
</trkpt>
<trkpt lat="31.7727800" lon="35.0989400">
<ele>603.351624</ele>
<time>2010-07-16T06:56:32.004Z</time>
</trkpt>
<trkpt lat="31.7730000" lon="35.0993200">
<ele>606.247192</ele>
<time>2010-07-16T06:56:24.996Z</time>
</trkpt>
<trkpt lat="31.7733900" lon="35.0995300">
<ele>608.167480</ele>
<time>2010-07-16T06:56:16.002Z</time>
</trkpt>
<trkpt lat="31.7741500" lon="35.0995000">
<ele>612.007935</ele>
<time>2010-07-16T06:55:57.996Z</time>
</trkpt>
<trkpt lat="31.7744600" lon="35.1003700">
<ele>613.470947</ele>
<time>2010-07-16T06:55:38.004Z</time>
</trkpt>
<trkpt lat="31.7755500" lon="35.1011300">
<ele>622.584473</ele>
<time>2010-07-16T06:55:07.003Z</time>
</trkpt>
<trkpt lat="31.7764900" lon="35.1013200">
<ele>628.345215</ele>
<time>2010-07-16T06:54:36.003Z</time>
</trkpt>
<trkpt lat="31.7779200" lon="35.1011300">
<ele>631.240784</ele>
<time>2010-07-16T06:53:45.001Z</time>
</trkpt>
<trkpt lat="31.7781500" lon="35.1013800">
<ele>631.728516</ele>
<time>2010-07-16T06:53:34.002Z</time>
</trkpt>
<trkpt lat="31.7781700" lon="35.1028700">
<ele>635.081299</ele>
<time>2010-07-16T06:53:03.002Z</time>
</trkpt>
<trkpt lat="31.7786500" lon="35.1037100">
<ele>639.409485</ele>
<time>2010-07-16T06:52:39.000Z</time>
</trkpt>
<trkpt lat="31.7783700" lon="35.1047500">
<ele>645.170166</ele>
<time>2010-07-16T06:52:10.004Z</time>
</trkpt>
<trkpt lat="31.7784200" lon="35.1056100">
<ele>648.065735</ele>
<time>2010-07-16T06:51:47.998Z</time>
</trkpt>
<trkpt lat="31.7790900" lon="35.1064900">
<ele>656.722107</ele>
<time>2010-07-16T06:51:12.997Z</time>
</trkpt>
<trkpt lat="31.7789400" lon="35.1092700">
<ele>670.651428</ele>
<time>2010-07-16T06:50:22.998Z</time>
</trkpt>
<trkpt lat="31.7797100" lon="35.1104800">
<ele>678.332397</ele>
<time>2010-07-16T06:49:59.998Z</time>
</trkpt>
<trkpt lat="31.7794900" lon="35.1132400">
<ele>692.779907</ele>
<time>2010-07-16T06:48:53.004Z</time>
</trkpt>
<trkpt lat="31.7801700" lon="35.1147500">
<ele>700.948547</ele>
<time>2010-07-16T06:48:25.001Z</time>
</trkpt>
<trkpt lat="31.7804300" lon="35.1150700">
<ele>700.948547</ele>
<time>2010-07-16T06:48:18.003Z</time>
</trkpt>
<trkpt lat="31.7811500" lon="35.1152900">
<ele>703.356506</ele>
<time>2010-07-16T06:48:06.002Z</time>
</trkpt>
<trkpt lat="31.7822200" lon="35.1152000">
<ele>711.982300</ele>
<time>2010-07-16T06:47:47.996Z</time>
</trkpt>
<trkpt lat="31.7831600" lon="35.1145600">
<ele>717.285828</ele>
<time>2010-07-16T06:46:31.999Z</time>
</trkpt>
<trkpt lat="31.7835600" lon="35.1147500">
<ele>711.037476</ele>
<time>2010-07-16T06:46:03.996Z</time>
</trkpt>
<trkpt lat="31.7834000" lon="35.1152100">
<ele>708.141846</ele>
<time>2010-07-16T06:45:44.997Z</time>
</trkpt>
<trkpt lat="31.7835040" lon="35.1153630">
<ele>709.117188</ele>
<time>2010-07-16T06:45:36.996Z</time>
</trkpt>
<trkpt lat="31.7843400" lon="35.1142200">
<ele>712.957703</ele>
<time>2010-07-16T06:45:00.000Z</time>
</trkpt>
<trkpt lat="31.7843600" lon="35.1138500">
<ele>709.604919</ele>
<time>2010-07-16T06:44:49.001Z</time>
</trkpt>
<trkpt lat="31.7839200" lon="35.1125200">
<ele>715.365601</ele>
<time>2010-07-16T06:44:22.001Z</time>
</trkpt>
<trkpt lat="31.7842700" lon="35.1116800">
<ele>715.365601</ele>
<time>2010-07-16T06:43:39.000Z</time>
</trkpt>
<trkpt lat="31.7844500" lon="35.1078000">
<ele>697.108093</ele>
<time>2010-07-16T06:40:36.998Z</time>
</trkpt>
<trkpt lat="31.7837800" lon="35.1076100">
<ele>696.132690</ele>
<time>2010-07-16T06:39:06.002Z</time>
</trkpt>
<trkpt lat="31.7826400" lon="35.1076500">
<ele>697.565308</ele>
<time>2010-07-16T06:25:57.999Z</time>
</trkpt>
<trkpt lat="31.7814000" lon="35.1036700">
<ele>677.387512</ele>
<time>2010-07-16T06:22:55.998Z</time>
</trkpt>
<trkpt lat="31.7821500" lon="35.1022200">
<ele>661.537903</ele>
<time>2010-07-16T06:21:03.004Z</time>
</trkpt>
<trkpt lat="31.7821800" lon="35.1002200">
<ele>651.906250</ele>
<time>2010-07-16T06:19:50.998Z</time>
</trkpt>
<trkpt lat="31.7819500" lon="35.0975500">
<ele>648.065735</ele>
<time>2010-07-16T06:18:40.003Z</time>
</trkpt>
<trkpt lat="31.7832700" lon="35.0919300">
<ele>617.311462</ele>
<time>2010-07-16T06:13:35.003Z</time>
</trkpt>
<trkpt lat="31.7831100" lon="35.0890300">
<ele>594.238098</ele>
<time>2010-07-16T06:10:41.002Z</time>
</trkpt>
<trkpt lat="31.7822500" lon="35.0850200">
<ele>568.756775</ele>
<time>2010-07-16T05:55:15.001Z</time>
</trkpt>
<trkpt lat="31.7834100" lon="35.0812400">
<ele>560.588135</ele>
<time>2010-07-16T05:53:33.999Z</time>
</trkpt>
<trkpt lat="31.7834600" lon="35.0799800">
<ele>561.533081</ele>
<time>2010-07-16T05:53:09.997Z</time>
</trkpt>
<trkpt lat="31.7832900" lon="35.0796800">
<ele>562.996094</ele>
<time>2010-07-16T05:53:05.004Z</time>
</trkpt>
<trkpt lat="31.7825700" lon="35.0792900">
<ele>566.348877</ele>
<time>2010-07-16T05:52:49.996Z</time>
</trkpt>
<trkpt lat="31.7817100" lon="35.0780900">
<ele>572.597290</ele>
<time>2010-07-16T05:52:26.996Z</time>
</trkpt>
<trkpt lat="31.7813600" lon="35.0779100">
<ele>574.029846</ele>
<time>2010-07-16T05:52:22.002Z</time>
</trkpt>
<trkpt lat="31.7805300" lon="35.0779300">
<ele>578.845642</ele>
<time>2010-07-16T05:52:07.003Z</time>
</trkpt>
<trkpt lat="31.7792500" lon="35.0786300">
<ele>577.413147</ele>
<time>2010-07-16T05:51:31.000Z</time>
</trkpt>
<trkpt lat="31.7790800" lon="35.0783500">
<ele>578.357971</ele>
<time>2010-07-16T05:51:24.002Z</time>
</trkpt>
<trkpt lat="31.7791500" lon="35.0776000">
<ele>578.845642</ele>
<time>2010-07-16T05:51:13.997Z</time>
</trkpt>
<trkpt lat="31.7789000" lon="35.0768500">
<ele>582.228943</ele>
<time>2010-07-16T05:51:02.998Z</time>
</trkpt>
<trkpt lat="31.7789600" lon="35.0763400">
<ele>583.173828</ele>
<time>2010-07-16T05:50:54.997Z</time>
</trkpt>
<trkpt lat="31.7795100" lon="35.0758200">
<ele>585.581726</ele>
<time>2010-07-16T05:50:42.996Z</time>
</trkpt>
<trkpt lat="31.7797800" lon="35.0749000">
<ele>586.069458</ele>
<time>2010-07-16T05:50:29.000Z</time>
</trkpt>
<trkpt lat="31.7797500" lon="35.0742900">
<ele>590.397583</ele>
<time>2010-07-16T05:50:20.999Z</time>
</trkpt>
<trkpt lat="31.7793100" lon="35.0732800">
<ele>592.317871</ele>
<time>2010-07-16T05:49:59.002Z</time>
</trkpt>
<trkpt lat="31.7794200" lon="35.0713600">
<ele>591.830139</ele>
<time>2010-07-16T05:49:24.001Z</time>
</trkpt>
<trkpt lat="31.7802400" lon="35.0694600">
<ele>598.078552</ele>
<time>2010-07-16T05:48:58.997Z</time>
</trkpt>
<trkpt lat="31.7803400" lon="35.0686100">
<ele>602.406738</ele>
<time>2010-07-16T05:48:50.003Z</time>
</trkpt>
<trkpt lat="31.7801200" lon="35.0676200">
<ele>610.575317</ele>
<time>2010-07-16T05:48:36.999Z</time>
</trkpt>
<trkpt lat="31.7809400" lon="35.0661900">
<ele>613.470947</ele>
<time>2010-07-16T05:47:53.998Z</time>
</trkpt>
<trkpt lat="31.7810700" lon="35.0653400">
<ele>609.142822</ele>
<time>2010-07-16T05:47:20.000Z</time>
</trkpt>
<trkpt lat="31.7810500" lon="35.0640300">
<ele>604.814636</ele>
<time>2010-07-16T05:46:50.002Z</time>
</trkpt>
<trkpt lat="31.7807400" lon="35.0637100">
<ele>605.759521</ele>
<time>2010-07-16T05:46:39.996Z</time>
</trkpt>
<trkpt lat="31.7791600" lon="35.0646200">
<ele>605.759521</ele>
<time>2010-07-16T05:45:42.998Z</time>
</trkpt>
<trkpt lat="31.7789400" lon="35.0644300">
<ele>605.302307</ele>
<time>2010-07-16T05:45:29.002Z</time>
</trkpt>
<trkpt lat="31.7791200" lon="35.0635900">
<ele>599.023438</ele>
<time>2010-07-16T05:44:13.004Z</time>
</trkpt>
<trkpt lat="31.7801000" lon="35.0614200">
<ele>591.342468</ele>
<time>2010-07-16T05:42:54.000Z</time>
</trkpt>
<trkpt lat="31.7804000" lon="35.0594800">
<ele>589.422241</ele>
<time>2010-07-16T05:42:01.996Z</time>
</trkpt>
<trkpt lat="31.7802900" lon="35.0584200">
<ele>584.606384</ele>
<time>2010-07-16T05:41:31.998Z</time>
</trkpt>
<trkpt lat="31.7800800" lon="35.0582000">
<ele>584.149170</ele>
<time>2010-07-16T05:41:24.999Z</time>
</trkpt>
<trkpt lat="31.7790300" lon="35.0581000">
<ele>583.173828</ele>
<time>2010-07-16T05:40:55.001Z</time>
</trkpt>
<trkpt lat="31.7801500" lon="35.0552700">
<ele>583.661499</ele>
<time>2010-07-16T05:39:43.004Z</time>
</trkpt>
<trkpt lat="31.7817300" lon="35.0553700">
<ele>567.324280</ele>
<time>2010-07-16T05:28:59.998Z</time>
</trkpt>
<trkpt lat="31.7821700" lon="35.0552500">
<ele>563.483765</ele>
<time>2010-07-16T05:28:19.001Z</time>
</trkpt>
<trkpt lat="31.7824400" lon="35.0549600">
<ele>558.667908</ele>
<time>2010-07-16T05:27:45.996Z</time>
</trkpt>
<trkpt lat="31.7829700" lon="35.0533300">
<ele>547.603699</ele>
<time>2010-07-16T05:25:53.003Z</time>
</trkpt>
<trkpt lat="31.7830900" lon="35.0502000">
<ele>523.585449</ele>
<time>2010-07-16T05:22:29.004Z</time>
</trkpt>
<trkpt lat="31.7825600" lon="35.0479500">
<ele>509.168396</ele>
<time>2010-07-16T05:20:14.997Z</time>
</trkpt>
<trkpt lat="31.7829000" lon="35.0454400">
<ele>492.343445</ele>
<time>2010-07-16T05:17:51.003Z</time>
</trkpt>
<trkpt lat="31.7824500" lon="35.0440100">
<ele>482.224060</ele>
<time>2010-07-16T05:16:22.002Z</time>
</trkpt>
<trkpt lat="31.7822600" lon="35.0421700">
<ele>469.270081</ele>
<time>2010-07-16T05:14:38.996Z</time>
</trkpt>
<trkpt lat="31.7816200" lon="35.0418300">
<ele>468.294739</ele>
<time>2010-07-16T05:14:12.998Z</time>
</trkpt>
<trkpt lat="31.7814600" lon="35.0414200">
<ele>467.349854</ele>
<time>2010-07-16T05:14:00.997Z</time>
</trkpt>
<trkpt lat="31.7798800" lon="35.0405900">
<ele>459.181213</ele>
<time>2010-07-16T05:11:09.001Z</time>
</trkpt>
<trkpt lat="31.7789300" lon="35.0397600">
<ele>451.469757</ele>
<time>2010-07-16T05:08:24.996Z</time>
</trkpt>
<trkpt lat="31.7778100" lon="35.0364300">
<ele>422.635681</ele>
<time>2010-07-16T05:04:29.004Z</time>
</trkpt>
<trkpt lat="31.7772900" lon="35.0357400">
<ele>416.874939</ele>
<time>2010-07-16T05:03:31.003Z</time>
</trkpt>
<trkpt lat="31.7769700" lon="35.0340500">
<ele>402.915131</ele>
<time>2010-07-16T05:01:44.999Z</time>
</trkpt>
<trkpt lat="31.7753100" lon="35.0331900">
<ele>386.577850</ele>
<time>2010-07-16T04:59:43.996Z</time>
</trkpt>
<trkpt lat="31.7746500" lon="35.0339300">
<ele>379.384552</ele>
<time>2010-07-16T04:57:29.998Z</time>
</trkpt>
<trkpt lat="31.7743900" lon="35.0337000">
<ele>376.001282</ele>
<time>2010-07-16T04:57:04.000Z</time>
</trkpt>
<trkpt lat="31.7747500" lon="35.0323900">
<ele>364.479858</ele>
<time>2010-07-16T04:55:35.000Z</time>
</trkpt>
<trkpt lat="31.7756900" lon="35.0319700">
<ele>354.390930</ele>
<time>2010-07-16T04:54:18.000Z</time>
</trkpt>
<trkpt lat="31.7751900" lon="35.0325200">
<ele>348.630249</ele>
<time>2010-07-16T04:53:26.998Z</time>
</trkpt>
<trkpt lat="31.7763000" lon="35.0319700">
<ele>335.645752</ele>
<time>2010-07-16T04:51:57.997Z</time>
</trkpt>
<trkpt lat="31.7762500" lon="35.0323400">
<ele>330.829926</ele>
<time>2010-07-16T04:51:33.002Z</time>
</trkpt>
<trkpt lat="31.7764300" lon="35.0322600">
<ele>329.397339</ele>
<time>2010-07-16T04:51:19.999Z</time>
</trkpt>
<trkpt lat="31.7769700" lon="35.0318900">
<ele>324.581512</ele>
<time>2010-07-16T04:50:43.002Z</time>
</trkpt>
<trkpt lat="31.7779400" lon="35.0304800">
<ele>316.900543</ele>
<time>2010-07-16T04:48:32.003Z</time>
</trkpt>
<trkpt lat="31.7781100" lon="35.0300300">
<ele>314.980316</ele>
<time>2010-07-16T04:48:16.001Z</time>
</trkpt>
<trkpt lat="31.7782400" lon="35.0275800">
<ele>309.189117</ele>
<time>2010-07-16T04:46:44.996Z</time>
</trkpt>
<trkpt lat="31.7774100" lon="35.0270900">
<ele>300.563263</ele>
<time>2010-07-16T04:45:38.002Z</time>
</trkpt>
<trkpt lat="31.7771300" lon="35.0264300">
<ele>294.772064</ele>
<time>2010-07-16T04:44:52.002Z</time>
</trkpt>
<trkpt lat="31.7777700" lon="35.0257100">
<ele>289.499023</ele>
<time>2010-07-16T04:44:06.996Z</time>
</trkpt>
<trkpt lat="31.7779300" lon="35.0247900">
<ele>285.170868</ele>
<time>2010-07-16T04:43:28.004Z</time>
</trkpt>
<trkpt lat="31.7786600" lon="35.0236000">
<ele>280.842712</ele>
<time>2010-07-16T04:42:34.004Z</time>
</trkpt>
<trkpt lat="31.7805700" lon="35.0196700">
<ele>272.186401</ele>
<time>2010-07-16T04:40:04.999Z</time>
</trkpt>
<trkpt lat="31.7805600" lon="35.0192300">
<ele>272.186401</ele>
<time>2010-07-16T04:39:50.000Z</time>
</trkpt>
<trkpt lat="31.7800900" lon="35.0181000">
<ele>268.833588</ele>
<time>2010-07-16T04:39:09.003Z</time>
</trkpt>
<trkpt lat="31.7791700" lon="35.0172300">
<ele>267.858246</ele>
<time>2010-07-16T04:38:23.997Z</time>
</trkpt>
<trkpt lat="31.7790800" lon="35.0162300">
<ele>270.753845</ele>
<time>2010-07-16T04:37:52.003Z</time>
</trkpt>
<trkpt lat="31.7785100" lon="35.0161400">
<ele>263.072876</ele>
<time>2010-07-16T04:37:17.003Z</time>
</trkpt>
<trkpt lat="31.7780100" lon="35.0157100">
<ele>264.017761</ele>
<time>2010-07-16T04:35:33.996Z</time>
</trkpt>
<trkpt lat="31.7778000" lon="35.0157900">
<ele>264.993134</ele>
<time>2010-07-16T04:34:47.004Z</time>
</trkpt>
</trkseg>
</trk>
</gpx>
